Cottage Hills, Illinois
Current Conditions -  °F | °C
As of 8:50 AM on Friday 31 Oct 2014 (Local Time) from KALN Reporting Station
Broken Clouds Broken Clouds  
Wind Chill: 35°   Ceiling: 3500
Heat Index: 43°   Visibility: 10mi
Dew Point: 28°   Wind: 18mph
Humidity: 57%   Direction: 340°NNW
Pressure: 30.23"   Gusts: 29mph
Location:  38.9°N, 90.07°W
Report Text: KALN 311350Z 34016G25KT 10SM BKN035 06/M02 A3023
Loading
Personal Weather Stations






























Interactive Weather Map
Tropical Storm Tracking
New forecast layout! Learn more

10-Day Weather Forecast

Advertisements
Track Severe Weather on mobile